createdAt,value
2022-09-28T00:02:24.554Z,9.84
2022-09-28T00:04:51.411Z,9.96
2022-09-28T00:07:18.155Z,9.86
2022-09-28T00:09:44.924Z,9.61
2022-09-28T00:12:11.836Z,9.69
2022-09-28T00:14:40.570Z,9.83
2022-09-28T00:17:08.292Z,9.78
2022-09-28T00:19:35.163Z,9.78
2022-09-28T00:22:01.996Z,9.82
2022-09-28T00:24:29.569Z,9.85
2022-09-28T00:26:58.876Z,9.87
2022-09-28T00:29:34.183Z,9.82
2022-09-28T00:32:07.872Z,9.81
2022-09-28T00:34:43.299Z,9.85
2022-09-28T00:37:10.536Z,9.87
2022-09-28T00:39:41.184Z,9.78
2022-09-28T00:42:25.986Z,9.70
2022-09-28T00:44:56.804Z,9.64
2022-09-28T00:47:45.480Z,9.62
2022-09-28T00:50:21.401Z,9.61
2022-09-28T00:52:54.330Z,9.54
2022-09-28T00:55:29.170Z,9.54
2022-09-28T00:57:59.414Z,9.45
2022-09-28T01:00:26.612Z,9.38
2022-09-28T01:02:53.653Z,9.47
2022-09-28T01:05:22.399Z,9.43
2022-09-28T01:07:49.286Z,9.42
2022-09-28T01:10:16.199Z,9.37
2022-09-28T01:12:43.326Z,9.27
2022-09-28T01:15:11.000Z,9.21
2022-09-28T01:18:07.175Z,9.14
2022-09-28T01:21:01.814Z,9.16
2022-09-28T01:23:54.375Z,9.18
2022-09-28T01:27:11.854Z,9.00
2022-09-28T01:30:14.578Z,9.02
2022-09-28T01:32:51.255Z,8.98
2022-09-28T01:35:31.311Z,9.02
2022-09-28T01:38:14.424Z,8.91
2022-09-28T01:40:42.055Z,9.06
2022-09-28T01:43:14.726Z,9.02
2022-09-28T01:45:49.509Z,8.92
2022-09-28T01:48:24.019Z,8.85
2022-09-28T01:50:56.171Z,8.86
2022-09-28T01:53:32.152Z,8.82
2022-09-28T01:56:14.422Z,8.61
2022-09-28T01:58:48.778Z,8.66
2022-09-28T02:01:28.873Z,8.60
2022-09-28T02:04:16.311Z,8.65
2022-09-28T02:06:58.734Z,8.44
2022-09-28T02:09:34.181Z,8.75
2022-09-28T02:12:10.734Z,8.74
2022-09-28T02:14:41.226Z,8.36
2022-09-28T02:17:10.118Z,8.58
2022-09-28T02:19:38.569Z,8.57
2022-09-28T02:22:05.348Z,8.46
2022-09-28T02:24:38.944Z,8.25
2022-09-28T02:27:17.195Z,8.14
2022-09-28T02:29:45.149Z,8.13
2022-09-28T02:32:11.991Z,8.23
2022-09-28T02:34:39.885Z,8.25
2022-09-28T02:37:08.709Z,8.36
2022-09-28T02:39:35.503Z,8.45
2022-09-28T02:42:21.330Z,8.52
2022-09-28T02:44:51.166Z,8.49
2022-09-28T02:47:44.349Z,8.40
2022-09-28T02:50:23.986Z,8.52
2022-09-28T02:53:10.507Z,8.60
2022-09-28T02:55:43.651Z,8.62
2022-09-28T02:58:22.100Z,8.68
2022-09-28T03:01:15.944Z,8.59
2022-09-28T03:03:50.391Z,8.61
2022-09-28T03:06:33.630Z,8.41
2022-09-28T03:09:07.746Z,8.51
2022-09-28T03:12:06.594Z,8.51
2022-09-28T03:14:33.637Z,8.31
2022-09-28T03:17:00.588Z,8.20
2022-09-28T03:19:33.227Z,8.18
2022-09-28T03:22:01.790Z,7.88
2022-09-28T03:24:28.624Z,7.95
2022-09-28T03:26:55.402Z,8.10
2022-09-28T03:29:22.906Z,8.07
2022-09-28T03:32:02.293Z,8.16
2022-09-28T03:34:29.101Z,8.16
2022-09-28T03:36:56.187Z,8.06
2022-09-28T03:39:23.607Z,8.19
2022-09-28T03:41:50.404Z,8.27
2022-09-28T03:44:20.063Z,8.24
2022-09-28T03:46:48.125Z,8.03
2022-09-28T03:49:14.980Z,7.96
2022-09-28T03:51:41.809Z,7.98
2022-09-28T03:54:08.794Z,8.04
2022-09-28T03:56:35.563Z,8.14
2022-09-28T03:59:05.553Z,7.92
2022-09-28T04:01:32.583Z,8.01
2022-09-28T04:03:59.455Z,7.91
2022-09-28T04:06:26.559Z,7.96
2022-09-28T04:08:53.855Z,7.68
2022-09-28T04:11:20.973Z,7.82
2022-09-28T04:13:49.471Z,7.80
2022-09-28T04:16:17.888Z,7.74
2022-09-28T04:18:53.224Z,7.78
2022-09-28T04:21:41.134Z,8.01
2022-09-28T04:24:11.359Z,7.90
2022-09-28T04:26:38.185Z,7.93
2022-09-28T04:29:17.298Z,7.96
2022-09-28T04:31:50.727Z,7.98
2022-09-28T04:34:21.485Z,8.14
2022-09-28T04:36:49.948Z,8.06
2022-09-28T04:39:18.256Z,8.14
2022-09-28T04:41:51.353Z,8.23
2022-09-28T04:44:18.792Z,8.17
2022-09-28T04:46:47.384Z,8.04
2022-09-28T04:49:29.514Z,8.11
2022-09-28T04:51:58.506Z,7.99
2022-09-28T04:54:25.293Z,8.11
2022-09-28T04:56:52.908Z,8.10
2022-09-28T04:59:19.769Z,8.08
2022-09-28T05:01:47.558Z,8.19
2022-09-28T05:04:32.971Z,8.12
2022-09-28T05:07:26.904Z,7.96
2022-09-28T05:09:55.250Z,7.98
2022-09-28T05:12:22.029Z,8.06
2022-09-28T05:14:48.805Z,7.93
2022-09-28T05:17:15.826Z,8.03
2022-09-28T05:19:45.409Z,7.94
2022-09-28T05:22:14.869Z,8.10
2022-09-28T05:24:46.451Z,8.10
2022-09-28T05:27:13.785Z,7.96
2022-09-28T05:29:41.116Z,8.08
2022-09-28T05:32:46.205Z,8.14
2022-09-28T05:35:29.535Z,8.02
2022-09-28T05:37:57.248Z,7.95
2022-09-28T05:40:24.190Z,7.91
2022-09-28T05:42:51.000Z,7.39
2022-09-28T05:45:17.808Z,7.58
2022-09-28T05:47:46.244Z,7.61
2022-09-28T05:50:16.311Z,7.64
2022-09-28T05:52:44.116Z,7.53
2022-09-28T05:55:11.652Z,7.80
2022-09-28T05:57:38.823Z,7.80
2022-09-28T06:00:10.190Z,7.73
2022-09-28T06:02:40.179Z,7.83
2022-09-28T06:05:09.534Z,7.86
2022-09-28T06:07:36.380Z,7.61
2022-09-28T06:10:03.915Z,7.84
2022-09-28T06:12:41.248Z,7.80
2022-09-28T06:15:15.135Z,8.01
2022-09-28T06:17:43.861Z,7.99
2022-09-28T06:20:42.500Z,7.67
2022-09-28T06:23:16.403Z,7.53
2022-09-28T06:25:43.620Z,7.36
2022-09-28T06:28:13.127Z,7.49
2022-09-28T06:30:41.503Z,7.71
2022-09-28T06:33:13.431Z,7.85
2022-09-28T06:35:42.271Z,7.97
2022-09-28T06:38:09.725Z,7.85
2022-09-28T06:40:38.625Z,8.02
2022-09-28T06:43:10.561Z,8.27
2022-09-28T06:45:56.097Z,8.42
2022-09-28T06:48:44.264Z,8.50
2022-09-28T06:51:18.575Z,8.51
2022-09-28T06:54:00.532Z,8.61
2022-09-28T06:56:40.911Z,8.68
2022-09-28T06:59:07.787Z,8.83
2022-09-28T07:01:36.527Z,8.62
2022-09-28T07:04:10.457Z,8.31
2022-09-28T07:06:56.156Z,8.33
2022-09-28T07:09:46.458Z,8.62
2022-09-28T07:12:35.851Z,8.90
2022-09-28T07:15:12.254Z,9.09
2022-09-28T07:17:54.554Z,9.01
2022-09-28T07:20:27.169Z,9.08
2022-09-28T07:23:14.968Z,9.00
2022-09-28T07:26:15.013Z,9.00
2022-09-28T07:28:56.140Z,9.04
2022-09-28T07:31:33.827Z,9.01
2022-09-28T07:34:26.508Z,9.19
2022-09-28T07:37:13.673Z,9.36
2022-09-28T07:39:59.556Z,9.21
2022-09-28T07:42:30.562Z,9.13
2022-09-28T07:44:58.102Z,9.35
2022-09-28T07:47:33.846Z,9.45
2022-09-28T07:50:30.821Z,9.78
2022-09-28T07:53:22.382Z,10.05
2022-09-28T07:56:14.039Z,10.14
2022-09-28T07:58:52.572Z,10.13
2022-09-28T08:01:49.614Z,10.45
2022-09-28T08:04:17.835Z,10.46
2022-09-28T08:06:48.291Z,10.59
2022-09-28T08:09:15.413Z,10.43
2022-09-28T08:12:01.031Z,10.72
2022-09-28T08:14:49.183Z,10.79
2022-09-28T08:17:34.137Z,10.66
2022-09-28T08:20:24.131Z,10.69
2022-09-28T08:22:51.290Z,10.84
2022-09-28T08:25:18.985Z,10.55
2022-09-28T08:27:46.821Z,10.57
2022-09-28T08:30:14.668Z,10.73
2022-09-28T08:32:50.350Z,10.58
2022-09-28T08:35:35.719Z,10.76
2022-09-28T08:38:29.978Z,11.14
2022-09-28T08:41:18.177Z,10.95
2022-09-28T08:44:25.935Z,11.42
2022-09-28T08:47:48.758Z,11.35
2022-09-28T08:50:29.111Z,11.45
2022-09-28T08:53:44.864Z,11.42
2022-09-28T08:56:42.990Z,11.54
2022-09-28T08:59:18.882Z,11.59
2022-09-28T09:01:58.019Z,11.57
2022-09-28T09:04:26.466Z,11.69
2022-09-28T09:07:41.583Z,11.79
2022-09-28T09:10:28.671Z,11.94
2022-09-28T09:13:29.102Z,11.95
2022-09-28T09:16:09.989Z,12.36
2022-09-28T09:19:00.782Z,12.36
2022-09-28T09:22:01.184Z,12.55
2022-09-28T09:24:50.615Z,12.52
2022-09-28T09:27:41.339Z,12.89
2022-09-28T09:30:12.827Z,12.80
2022-09-28T09:33:01.337Z,13.10
2022-09-28T09:35:37.508Z,13.09
2022-09-28T09:38:41.127Z,12.85
2022-09-28T09:41:54.008Z,13.27
2022-09-28T09:45:14.155Z,13.29
2022-09-28T09:48:31.181Z,13.54
2022-09-28T09:51:03.193Z,13.53
2022-09-28T09:53:38.628Z,13.40
2022-09-28T09:56:15.440Z,13.80
2022-09-28T09:59:19.970Z,14.01
2022-09-28T10:02:21.164Z,14.56
2022-09-28T10:04:58.597Z,14.22
2022-09-28T10:07:50.017Z,14.74
2022-09-28T10:10:29.938Z,15.05
2022-09-28T10:13:25.833Z,15.15
2022-09-28T10:15:55.472Z,15.08
2022-09-28T10:18:28.154Z,14.99
2022-09-28T10:21:20.497Z,15.04
2022-09-28T10:23:58.053Z,15.48
2022-09-28T10:26:43.301Z,15.44
2022-09-28T10:29:20.659Z,15.87
2022-09-28T10:31:49.377Z,16.16
2022-09-28T10:34:30.508Z,16.31
2022-09-28T10:37:06.715Z,16.48
2022-09-28T10:39:55.986Z,16.69
2022-09-28T10:42:31.385Z,17.35
2022-09-28T10:45:05.354Z,17.44
2022-09-28T10:47:35.689Z,17.65
2022-09-28T10:50:27.015Z,18.05
2022-09-28T10:53:21.413Z,18.22
2022-09-28T10:56:18.374Z,18.17
2022-09-28T10:58:45.945Z,18.66
2022-09-28T11:01:26.884Z,18.80
2022-09-28T11:04:02.231Z,19.31
2022-09-28T11:06:36.960Z,19.03
2022-09-28T11:09:22.607Z,18.94
2022-09-28T11:11:50.073Z,19.22
2022-09-28T11:14:42.133Z,19.04
2022-09-28T11:17:16.103Z,18.96
2022-09-28T11:19:43.783Z,18.78
2022-09-28T11:22:37.941Z,18.03
2022-09-28T11:25:19.141Z,17.29
2022-09-28T11:27:53.140Z,16.63
2022-09-28T11:30:23.846Z,16.51
2022-09-28T11:33:33.006Z,16.28
2022-09-28T11:36:39.444Z,15.75
2022-09-28T11:39:18.034Z,15.43
2022-09-28T11:42:07.176Z,15.51
2022-09-28T11:44:39.820Z,15.32
2022-09-28T11:47:36.967Z,15.28
2022-09-28T11:50:29.404Z,15.42
2022-09-28T11:53:18.193Z,15.02
2022-09-28T11:56:09.208Z,14.90
2022-09-28T11:58:48.028Z,14.79
2022-09-28T12:01:35.660Z,14.97
2022-09-28T12:04:20.755Z,15.12
2022-09-28T12:06:56.636Z,15.18
2022-09-28T12:10:02.322Z,15.29
2022-09-28T12:12:35.351Z,15.14
2022-09-28T12:15:23.163Z,15.41
2022-09-28T12:17:56.113Z,15.29
2022-09-28T12:20:33.337Z,15.06
2022-09-28T12:23:00.004Z,15.28
2022-09-28T12:25:33.026Z,15.22
2022-09-28T12:28:03.407Z,15.29
2022-09-28T12:30:40.595Z,15.34
2022-09-28T12:33:15.473Z,15.55
2022-09-28T12:35:48.196Z,15.76
2022-09-28T12:38:33.396Z,15.60
2022-09-28T12:41:22.586Z,15.90
2022-09-28T12:44:04.662Z,16.43
2022-09-28T12:47:06.479Z,16.88
2022-09-28T12:50:37.682Z,16.89
2022-09-28T12:53:07.377Z,17.51
2022-09-28T12:55:56.527Z,17.40
2022-09-28T12:58:52.156Z,17.85
2022-09-28T13:01:42.439Z,18.23
2022-09-28T13:04:48.867Z,18.41
2022-09-28T13:07:32.455Z,18.44
2022-09-28T13:10:32.720Z,17.90
2022-09-28T13:13:41.190Z,18.17
2022-09-28T13:16:17.562Z,18.59
2022-09-28T13:18:55.984Z,18.96
2022-09-28T13:21:40.965Z,19.17
2022-09-28T13:24:30.958Z,18.93
2022-09-28T13:27:04.728Z,19.00
2022-09-28T13:29:34.100Z,19.28
2022-09-28T13:32:03.264Z,20.00
2022-09-28T13:34:33.576Z,20.22
2022-09-28T13:37:20.283Z,20.16
2022-09-28T13:39:52.253Z,20.42
2022-09-28T13:42:35.115Z,20.75
2022-09-28T13:45:25.124Z,21.04
2022-09-28T13:47:51.927Z,21.18
2022-09-28T13:50:44.571Z,20.89
2022-09-28T13:53:55.689Z,21.37
2022-09-28T13:56:53.601Z,21.90
2022-09-28T13:59:31.966Z,22.16
2022-09-28T14:02:06.964Z,22.22
2022-09-28T14:05:01.780Z,22.03
2022-09-28T14:07:34.613Z,21.78
2022-09-28T14:10:17.638Z,21.64
2022-09-28T14:12:54.938Z,21.49
2022-09-28T14:15:37.007Z,21.65
2022-09-28T14:18:26.917Z,22.07
2022-09-28T14:21:02.670Z,21.62
2022-09-28T14:23:50.655Z,21.39
2022-09-28T14:26:29.913Z,21.30
2022-09-28T14:29:17.689Z,21.42
2022-09-28T14:31:45.330Z,21.76
2022-09-28T14:34:37.567Z,21.90
2022-09-28T14:37:36.897Z,21.92
2022-09-28T14:40:39.992Z,22.19
2022-09-28T14:43:32.571Z,23.12
2022-09-28T14:46:11.530Z,23.50
2022-09-28T14:48:49.134Z,23.94
2022-09-28T14:51:26.204Z,23.91
2022-09-28T14:53:55.347Z,23.46
2022-09-28T14:56:22.233Z,23.02
2022-09-28T14:58:56.915Z,22.26
2022-09-28T15:01:25.978Z,22.41
2022-09-28T15:03:56.657Z,22.10
2022-09-28T15:06:24.622Z,21.71
2022-09-28T15:08:51.655Z,21.80
2022-09-28T15:11:23.607Z,22.08
2022-09-28T15:13:55.643Z,22.51
2022-09-28T15:16:24.097Z,21.64
2022-09-28T15:19:00.051Z,21.52
2022-09-28T15:21:39.950Z,21.72
2022-09-28T15:24:32.659Z,21.44
2022-09-28T15:27:13.703Z,20.98
2022-09-28T15:29:40.934Z,20.82
2022-09-28T15:32:27.341Z,20.54
2022-09-28T15:34:56.842Z,20.30
2022-09-28T15:37:29.428Z,20.54
2022-09-28T15:39:58.040Z,20.92
2022-09-28T15:42:25.645Z,20.63
2022-09-28T15:45:37.147Z,20.48
2022-09-28T15:48:30.412Z,20.44
2022-09-28T15:51:12.729Z,20.71
2022-09-28T15:53:54.201Z,20.29
2022-09-28T15:56:21.058Z,20.26
2022-09-28T15:59:11.150Z,19.86
2022-09-28T16:01:39.997Z,19.88
2022-09-28T16:04:37.461Z,19.78
2022-09-28T16:07:17.339Z,19.40
2022-09-28T16:10:06.201Z,19.19
2022-09-28T16:12:41.316Z,19.07
2022-09-28T16:15:20.218Z,19.29
2022-09-28T16:18:03.108Z,19.20
2022-09-28T16:20:36.484Z,19.44
2022-09-28T16:23:16.020Z,19.12
2022-09-28T16:25:59.461Z,18.67
2022-09-28T16:28:35.086Z,18.37
2022-09-28T16:31:07.624Z,17.96
2022-09-28T16:33:45.780Z,17.96
2022-09-28T16:36:16.046Z,17.79
2022-09-28T16:38:47.017Z,17.70
2022-09-28T16:41:19.482Z,17.32
2022-09-28T16:43:47.145Z,17.56
2022-09-28T16:46:17.801Z,17.24
2022-09-28T16:48:50.232Z,17.20
2022-09-28T16:51:19.718Z,17.14
2022-09-28T16:54:05.533Z,16.96
2022-09-28T16:56:35.086Z,16.52
2022-09-28T16:59:04.931Z,16.50
2022-09-28T17:01:32.033Z,16.78
2022-09-28T17:03:58.903Z,16.64
2022-09-28T17:06:26.715Z,16.44
2022-09-28T17:08:59.343Z,16.45
2022-09-28T17:11:26.208Z,16.31
2022-09-28T17:13:59.038Z,16.18
2022-09-28T17:16:57.333Z,15.89
2022-09-28T17:19:25.708Z,15.70
2022-09-28T17:21:53.080Z,15.41
2022-09-28T17:24:20.514Z,15.60
2022-09-28T17:26:49.904Z,15.46
2022-09-28T17:29:16.949Z,15.32
2022-09-28T17:31:45.630Z,15.09
2022-09-28T17:34:15.204Z,14.94
2022-09-28T17:36:43.347Z,14.50
2022-09-28T17:39:15.400Z,14.23
2022-09-28T17:41:42.440Z,14.40
2022-09-28T17:44:09.636Z,14.18
2022-09-28T17:46:39.740Z,14.19
2022-09-28T17:49:09.743Z,14.25
2022-09-28T17:51:37.709Z,14.18
2022-09-28T17:54:06.546Z,14.15
2022-09-28T17:56:33.938Z,13.99
2022-09-28T17:59:06.651Z,13.66
2022-09-28T18:01:39.315Z,13.53
2022-09-28T18:04:08.846Z,13.40
2022-09-28T18:06:37.292Z,13.18
2022-09-28T18:09:05.515Z,13.12
2022-09-28T18:11:33.653Z,13.07
2022-09-28T18:14:01.030Z,13.15
2022-09-28T18:16:28.980Z,13.01
2022-09-28T18:18:56.175Z,12.98
2022-09-28T18:21:23.051Z,12.77
2022-09-28T18:23:50.134Z,12.74
2022-09-28T18:26:19.601Z,12.69
2022-09-28T18:28:47.110Z,12.57
2022-09-28T18:31:15.568Z,12.47
2022-09-28T18:33:52.569Z,12.45
2022-09-28T18:36:23.631Z,12.48
2022-09-28T18:38:50.732Z,12.50
2022-09-28T18:41:17.572Z,12.35
2022-09-28T18:43:51.073Z,12.29
2022-09-28T18:46:18.730Z,12.34
2022-09-28T18:48:47.240Z,12.25
2022-09-28T18:51:14.509Z,12.20
2022-09-28T18:53:41.617Z,12.12
2022-09-28T18:56:10.732Z,11.98
2022-09-28T18:58:39.873Z,12.10
2022-09-28T19:01:31.576Z,12.07
2022-09-28T19:04:00.629Z,11.92
2022-09-28T19:06:28.117Z,11.69
2022-09-28T19:08:55.782Z,11.66
2022-09-28T19:11:23.150Z,11.59
2022-09-28T19:13:50.636Z,11.58
2022-09-28T19:16:27.379Z,11.53
2022-09-28T19:18:56.303Z,11.55
2022-09-28T19:21:23.346Z,11.48
2022-09-28T19:23:50.739Z,11.44
2022-09-28T19:26:21.293Z,11.24
2022-09-28T19:28:48.500Z,11.11
2022-09-28T19:31:15.690Z,10.99
2022-09-28T19:33:43.780Z,11.18
2022-09-28T19:36:12.951Z,11.22
2022-09-28T19:38:40.243Z,11.17
2022-09-28T19:41:12.993Z,11.26
2022-09-28T19:43:43.652Z,11.16
2022-09-28T19:46:12.765Z,11.19
2022-09-28T19:48:42.355Z,11.23
2022-09-28T19:51:09.209Z,11.34
2022-09-28T19:53:41.084Z,11.44
2022-09-28T19:56:07.886Z,11.36
2022-09-28T19:58:36.553Z,11.50
2022-09-28T20:01:07.149Z,11.40
2022-09-28T20:03:34.882Z,11.41
2022-09-28T20:06:02.269Z,11.44
2022-09-28T20:08:32.588Z,11.55
2022-09-28T20:11:00.118Z,11.53
2022-09-28T20:13:33.730Z,11.43
2022-09-28T20:16:08.011Z,11.25
2022-09-28T20:18:36.457Z,11.24
2022-09-28T20:21:04.829Z,11.33
2022-09-28T20:23:31.760Z,11.39
2022-09-28T20:25:59.011Z,11.30
2022-09-28T20:28:26.118Z,11.24
2022-09-28T20:30:53.175Z,11.06
2022-09-28T20:33:28.698Z,11.09
2022-09-28T20:35:56.066Z,11.18
2022-09-28T20:38:23.668Z,11.08
2022-09-28T20:40:50.560Z,11.09
2022-09-28T20:43:17.361Z,10.78
2022-09-28T20:45:44.306Z,10.78
2022-09-28T20:48:11.104Z,10.99
2022-09-28T20:50:37.890Z,10.80
2022-09-28T20:53:04.745Z,10.65
2022-09-28T20:55:31.470Z,10.84
2022-09-28T20:58:02.808Z,10.96
2022-09-28T21:00:29.821Z,11.13
2022-09-28T21:02:56.690Z,11.13
2022-09-28T21:05:23.499Z,11.01
2022-09-28T21:07:50.278Z,11.04
2022-09-28T21:10:17.123Z,11.08
2022-09-28T21:12:48.180Z,11.02
2022-09-28T21:15:15.006Z,10.98
2022-09-28T21:17:41.829Z,11.01
2022-09-28T21:20:08.934Z,10.93
2022-09-28T21:22:35.706Z,10.99
2022-09-28T21:25:02.478Z,11.04
2022-09-28T21:27:29.265Z,10.95
2022-09-28T21:29:55.977Z,10.90
2022-09-28T21:32:23.295Z,10.91
2022-09-28T21:34:50.470Z,10.88
2022-09-28T21:37:17.269Z,10.84
2022-09-28T21:39:44.160Z,10.63
2022-09-28T21:42:10.883Z,10.56
2022-09-28T21:44:37.676Z,10.87
2022-09-28T21:47:04.566Z,10.91
2022-09-28T21:49:31.288Z,10.76
2022-09-28T21:51:58.041Z,10.71
2022-09-28T21:54:24.793Z,10.48
2022-09-28T21:56:52.589Z,10.67
2022-09-28T21:59:19.458Z,10.44
2022-09-28T22:01:48.120Z,10.48
2022-09-28T22:04:14.958Z,10.36
2022-09-28T22:06:41.754Z,10.43
2022-09-28T22:09:08.902Z,10.31
2022-09-28T22:11:35.726Z,10.43
2022-09-28T22:14:02.540Z,10.49
2022-09-28T22:16:30.742Z,10.65
2022-09-28T22:18:58.756Z,10.80
2022-09-28T22:21:31.828Z,10.74
2022-09-28T22:24:01.163Z,10.54
2022-09-28T22:26:29.504Z,10.35
2022-09-28T22:28:58.721Z,10.15
2022-09-28T22:31:29.005Z,10.13
2022-09-28T22:33:56.815Z,10.15
2022-09-28T22:36:24.307Z,10.36
2022-09-28T22:38:51.330Z,10.52
2022-09-28T22:41:22.304Z,10.67
2022-09-28T22:43:51.379Z,10.72
2022-09-28T22:46:20.878Z,10.59
2022-09-28T22:48:49.541Z,10.55
2022-09-28T22:51:16.914Z,10.62
2022-09-28T22:53:44.256Z,10.66
2022-09-28T22:56:14.738Z,10.71
2022-09-28T22:58:45.115Z,10.72
2022-09-28T23:01:15.137Z,10.63
2022-09-28T23:03:42.618Z,10.56
2022-09-28T23:06:10.896Z,10.56
2022-09-28T23:08:38.957Z,10.54
2022-09-28T23:11:06.618Z,10.49
2022-09-28T23:13:33.707Z,10.49
2022-09-28T23:16:27.060Z,10.27
2022-09-28T23:18:55.547Z,10.32
2022-09-28T23:21:24.618Z,10.28
2022-09-28T23:23:54.362Z,10.28
2022-09-28T23:26:27.563Z,10.27
2022-09-28T23:28:55.363Z,10.22
2022-09-28T23:31:24.913Z,10.28
2022-09-28T23:33:51.983Z,10.16
2022-09-28T23:36:18.968Z,10.11
2022-09-28T23:38:45.862Z,10.16
2022-09-28T23:41:12.614Z,10.20
2022-09-28T23:43:39.478Z,10.21
2022-09-28T23:46:06.487Z,10.21
2022-09-28T23:48:34.981Z,10.17
2022-09-28T23:51:02.463Z,10.00
2022-09-28T23:53:30.067Z,9.78
2022-09-28T23:55:56.788Z,10.03
2022-09-28T23:58:24.180Z,10.15
